• pl
  • eng

Awiacja
TAF FT 16:30 23.07.2019
  • WIND
  • SIGNIFICANT EURO
  • SIGNIFICANT
  • SIGMET
  • AIRMET
  • TAF FC
  • TAF FT
  • METAR GG30
  • METAR GG00


TAF EPBY 231130Z 2312/2412 30010KT 9999 SCT012 BKN020
TEMPO 2312/2409 4500 -RA BKN009
PROB40 TEMPO 2400/2407 2000 -DZ BR BKN004
BECMG 2405/2408 36006KT=

TAF AMD EPGD 231506Z 2315/2412 28010KT 9999 SCT004 BKN008
TEMPO 2315/2406 2000 DZ BR BKN002
BECMG 2407/2410 01008KT SCT008 BKN025=

TAF EPKK 231430Z 2315/2415 30004KT 9999 BKN020
TEMPO 2315/2321 SCT009 BKN013
TEMPO 2321/2406 3000 BR BKN004=

TAF AMD EPKT 231327Z 2313/2412 32008KT 9999 BKN020
TEMPO 2313/2317 BKN007
PROB40 TEMPO 2321/2406 2000 BR BKN004=

TAF EPLL 231130Z 2312/2412 32005KT 9999 BKN025
BECMG 2323/2402 BKN012
TEMPO 2400/2409 3000 -RA BR BKN008=

TAF EPMO 231130Z 2312/2412 32005KT 9999 BKN035
BECMG 2322/2401 BKN012
TEMPO 2322/2409 4000 -RA BR SCT004 BKN007=

TAF EPPO 231130Z 2312/2412 33008KT 9999 BKN025
TEMPO 2401/2404 3000 BR=

TAF EPRZ 231130Z 2312/2412 28012KT 9999 BKN020
PROB40 TEMPO 2312/2315 BKN013
BECMG 2406/2408 VRB02KT=

TAF EPSC 231130Z 2312/2412 32010KT 9999 BKN025
BECMG 2320/2323 VRB03KT
TEMPO 2401/2405 1500 BR
PROB30 TEMPO 2403/2408 BKN003=

TAF EPWA 231430Z 2315/2415 35010KT 9999 BKN035
BECMG 2322/2401 VRB04KT BKN012
TEMPO 2322/2408 4000 -RA BR BKN008
BECMG 2408/2410 SCT025=

TAF EPWR 231430Z 2315/2415 36010KT CAVOK
BECMG 2318/2321 VRB02KT
PROB30 TEMPO 2323/2404 3000 BR
BECMG 2406/2409 36010KT=
Awiacja.imgw.pl jest pogodowym serwisem informacyjnym
Instytutu Meteorologii i Gospodarki Wodnej Państwowego Instytutu Badawczego.
Copyright IMGW PIB 2009-2011© Wszelkie prawa zastrzeżone.